sensor_id;sensor_type;location;lat;lon;timestamp;temperature;humidity
24224;DHT22;12359;49.716;9.212;2023-10-09T00:00:24;14.00;69.40
24224;DHT22;12359;49.716;9.212;2023-10-09T00:03:05;14.00;66.20
24224;DHT22;12359;49.716;9.212;2023-10-09T00:05:32;14.00;68.50
24224;DHT22;12359;49.716;9.212;2023-10-09T00:08:06;14.00;71.60
24224;DHT22;12359;49.716;9.212;2023-10-09T00:10:34;13.90;75.40
24224;DHT22;12359;49.716;9.212;2023-10-09T00:13:35;13.80;73.30
24224;DHT22;12359;49.716;9.212;2023-10-09T00:16:05;13.90;75.60
24224;DHT22;12359;49.716;9.212;2023-10-09T00:18:39;13.90;77.20
24224;DHT22;12359;49.716;9.212;2023-10-09T00:21:16;13.90;76.30
24224;DHT22;12359;49.716;9.212;2023-10-09T00:23:46;13.90;76.60
24224;DHT22;12359;49.716;9.212;2023-10-09T00:26:21;13.90;77.00
24224;DHT22;12359;49.716;9.212;2023-10-09T00:28:48;13.90;69.70
24224;DHT22;12359;49.716;9.212;2023-10-09T00:31:17;13.90;71.10
24224;DHT22;12359;49.716;9.212;2023-10-09T00:33:52;13.80;69.90
24224;DHT22;12359;49.716;9.212;2023-10-09T00:36:20;13.70;66.60
24224;DHT22;12359;49.716;9.212;2023-10-09T00:38:52;13.80;68.60
24224;DHT22;12359;49.716;9.212;2023-10-09T00:41:18;13.80;68.70
24224;DHT22;12359;49.716;9.212;2023-10-09T00:43:50;13.80;68.50
24224;DHT22;12359;49.716;9.212;2023-10-09T00:46:17;13.70;72.60
24224;DHT22;12359;49.716;9.212;2023-10-09T00:48:54;13.70;72.20
24224;DHT22;12359;49.716;9.212;2023-10-09T00:51:21;13.60;74.70
24224;DHT22;12359;49.716;9.212;2023-10-09T00:53:49;13.60;77.30
24224;DHT22;12359;49.716;9.212;2023-10-09T00:56:19;13.60;81.60
24224;DHT22;12359;49.716;9.212;2023-10-09T00:59:00;13.50;79.70
24224;DHT22;12359;49.716;9.212;2023-10-09T01:01:40;13.50;80.30
24224;DHT22;12359;49.716;9.212;2023-10-09T01:04:10;13.50;78.60
24224;DHT22;12359;49.716;9.212;2023-10-09T01:06:38;13.50;80.40
24224;DHT22;12359;49.716;9.212;2023-10-09T01:09:14;13.50;80.00
24224;DHT22;12359;49.716;9.212;2023-10-09T01:11:43;13.50;80.20
24224;DHT22;12359;49.716;9.212;2023-10-09T01:14:24;13.50;78.40
24224;DHT22;12359;49.716;9.212;2023-10-09T01:16:50;13.60;79.10
24224;DHT22;12359;49.716;9.212;2023-10-09T01:19:19;13.60;78.90
24224;DHT22;12359;49.716;9.212;2023-10-09T01:21:53;13.60;75.70
24224;DHT22;12359;49.716;9.212;2023-10-09T01:24:20;13.60;74.00
24224;DHT22;12359;49.716;9.212;2023-10-09T01:26:47;13.60;73.90
24224;DHT22;12359;49.716;9.212;2023-10-09T01:29:18;13.60;70.30
24224;DHT22;12359;49.716;9.212;2023-10-09T01:31:52;13.50;71.50
24224;DHT22;12359;49.716;9.212;2023-10-09T01:34:25;13.60;76.70
24224;DHT22;12359;49.716;9.212;2023-10-09T01:37:14;13.60;75.60
24224;DHT22;12359;49.716;9.212;2023-10-09T01:39:53;13.60;75.10
24224;DHT22;12359;49.716;9.212;2023-10-09T01:42:45;13.60;73.80
24224;DHT22;12359;49.716;9.212;2023-10-09T01:45:11;13.60;71.40
24224;DHT22;12359;49.716;9.212;2023-10-09T01:47:58;13.60;72.90
24224;DHT22;12359;49.716;9.212;2023-10-09T01:50:23;13.60;73.40
24224;DHT22;12359;49.716;9.212;2023-10-09T01:53:00;13.60;72.10
24224;DHT22;12359;49.716;9.212;2023-10-09T01:55:31;13.70;67.10
24224;DHT22;12359;49.716;9.212;2023-10-09T01:58:01;13.70;66.60
24224;DHT22;12359;49.716;9.212;2023-10-09T02:00:50;13.70;66.20
24224;DHT22;12359;49.716;9.212;2023-10-09T02:03:20;13.70;62.10
24224;DHT22;12359;49.716;9.212;2023-10-09T02:05:49;13.70;59.50
24224;DHT22;12359;49.716;9.212;2023-10-09T02:08:17;13.60;59.00
24224;DHT22;12359;49.716;9.212;2023-10-09T02:10:47;13.60;61.50
24224;DHT22;12359;49.716;9.212;2023-10-09T02:13:14;13.60;62.00
24224;DHT22;12359;49.716;9.212;2023-10-09T02:15:43;13.60;58.20
24224;DHT22;12359;49.716;9.212;2023-10-09T02:18:10;13.60;55.70
24224;DHT22;12359;49.716;9.212;2023-10-09T02:20:49;13.50;55.00
24224;DHT22;12359;49.716;9.212;2023-10-09T02:23:29;13.60;57.70
24224;DHT22;12359;49.716;9.212;2023-10-09T02:26:11;13.50;55.80
24224;DHT22;12359;49.716;9.212;2023-10-09T02:29:00;13.50;55.40
24224;DHT22;12359;49.716;9.212;2023-10-09T02:31:34;13.50;55.00
24224;DHT22;12359;49.716;9.212;2023-10-09T02:34:07;13.50;53.10
24224;DHT22;12359;49.716;9.212;2023-10-09T02:36:45;13.50;52.20
24224;DHT22;12359;49.716;9.212;2023-10-09T02:39:25;13.40;50.10
24224;DHT22;12359;49.716;9.212;2023-10-09T02:41:57;13.40;52.50
24224;DHT22;12359;49.716;9.212;2023-10-09T02:44:46;13.40;51.70
24224;DHT22;12359;49.716;9.212;2023-10-09T02:47:12;13.30;47.10
24224;DHT22;12359;49.716;9.212;2023-10-09T02:49:46;13.30;45.50
24224;DHT22;12359;49.716;9.212;2023-10-09T02:52:14;13.20;49.00
24224;DHT22;12359;49.716;9.212;2023-10-09T02:54:47;13.20;46.80
24224;DHT22;12359;49.716;9.212;2023-10-09T02:57:13;13.20;46.50
24224;DHT22;12359;49.716;9.212;2023-10-09T02:59:49;13.20;49.30
24224;DHT22;12359;49.716;9.212;2023-10-09T03:02:17;13.10;46.40
24224;DHT22;12359;49.716;9.212;2023-10-09T03:04:43;13.10;49.00
24224;DHT22;12359;49.716;9.212;2023-10-09T03:07:10;13.10;48.20
24224;DHT22;12359;49.716;9.212;2023-10-09T03:09:39;13.10;48.70
24224;DHT22;12359;49.716;9.212;2023-10-09T03:12:07;13.00;47.90
24224;DHT22;12359;49.716;9.212;2023-10-09T03:14:37;13.10;48.70
24224;DHT22;12359;49.716;9.212;2023-10-09T03:17:06;13.00;48.10
24224;DHT22;12359;49.716;9.212;2023-10-09T03:19:37;13.10;52.40
24224;DHT22;12359;49.716;9.212;2023-10-09T03:22:12;13.00;50.00
24224;DHT22;12359;49.716;9.212;2023-10-09T03:24:39;13.00;52.80
24224;DHT22;12359;49.716;9.212;2023-10-09T03:27:07;13.00;50.80
24224;DHT22;12359;49.716;9.212;2023-10-09T03:29:32;13.00;50.70
24224;DHT22;12359;49.716;9.212;2023-10-09T03:31:59;13.00;49.00
24224;DHT22;12359;49.716;9.212;2023-10-09T03:34:25;12.90;45.50
24224;DHT22;12359;49.716;9.212;2023-10-09T03:36:51;12.90;47.80
24224;DHT22;12359;49.716;9.212;2023-10-09T03:39:32;12.90;47.70
24224;DHT22;12359;49.716;9.212;2023-10-09T03:42:06;12.80;47.20
24224;DHT22;12359;49.716;9.212;2023-10-09T03:44:37;12.80;43.60
24224;DHT22;12359;49.716;9.212;2023-10-09T03:47:07;12.70;47.80
24224;DHT22;12359;49.716;9.212;2023-10-09T03:49:36;12.70;45.60
24224;DHT22;12359;49.716;9.212;2023-10-09T03:52:05;12.70;47.60
24224;DHT22;12359;49.716;9.212;2023-10-09T03:54:32;12.70;45.90
24224;DHT22;12359;49.716;9.212;2023-10-09T03:57:00;12.70;45.70
24224;DHT22;12359;49.716;9.212;2023-10-09T03:59:27;12.60;46.80
24224;DHT22;12359;49.716;9.212;2023-10-09T04:01:56;12.60;46.60
24224;DHT22;12359;49.716;9.212;2023-10-09T04:04:24;12.60;51.30
24224;DHT22;12359;49.716;9.212;2023-10-09T04:06:50;12.60;48.10
24224;DHT22;12359;49.716;9.212;2023-10-09T04:09:17;12.60;48.90
24224;DHT22;12359;49.716;9.212;2023-10-09T04:11:47;12.50;47.40
24224;DHT22;12359;49.716;9.212;2023-10-09T04:14:13;12.50;46.60
24224;DHT22;12359;49.716;9.212;2023-10-09T04:16:49;12.50;48.50
24224;DHT22;12359;49.716;9.212;2023-10-09T04:19:29;12.50;46.80
24224;DHT22;12359;49.716;9.212;2023-10-09T04:21:55;12.50;48.30
24224;DHT22;12359;49.716;9.212;2023-10-09T04:24:24;12.40;46.00
24224;DHT22;12359;49.716;9.212;2023-10-09T04:26:50;12.40;49.40
24224;DHT22;12359;49.716;9.212;2023-10-09T04:29:22;12.40;50.50
24224;DHT22;12359;49.716;9.212;2023-10-09T04:31:57;12.40;51.00
24224;DHT22;12359;49.716;9.212;2023-10-09T04:34:26;12.40;51.90
24224;DHT22;12359;49.716;9.212;2023-10-09T04:37:13;12.40;52.30
24224;DHT22;12359;49.716;9.212;2023-10-09T04:39:39;12.50;52.80
24224;DHT22;12359;49.716;9.212;2023-10-09T04:42:13;12.50;52.40
24224;DHT22;12359;49.716;9.212;2023-10-09T04:44:45;12.50;52.50
24224;DHT22;12359;49.716;9.212;2023-10-09T04:47:31;12.50;53.30
24224;DHT22;12359;49.716;9.212;2023-10-09T04:50:24;12.50;53.30
24224;DHT22;12359;49.716;9.212;2023-10-09T04:52:56;12.60;54.90
24224;DHT22;12359;49.716;9.212;2023-10-09T04:55:30;12.60;54.00
24224;DHT22;12359;49.716;9.212;2023-10-09T04:58:04;12.60;54.00
24224;DHT22;12359;49.716;9.212;2023-10-09T05:00:32;12.60;54.90
24224;DHT22;12359;49.716;9.212;2023-10-09T05:02:59;12.70;54.00
24224;DHT22;12359;49.716;9.212;2023-10-09T05:05:48;12.70;51.70
24224;DHT22;12359;49.716;9.212;2023-10-09T05:08:24;12.70;50.10
24224;DHT22;12359;49.716;9.212;2023-10-09T05:10:56;12.70;52.00
24224;DHT22;12359;49.716;9.212;2023-10-09T05:13:26;12.70;50.50
24224;DHT22;12359;49.716;9.212;2023-10-09T05:18:49;12.70;50.30
24224;DHT22;12359;49.716;9.212;2023-10-09T05:21:35;12.70;51.80
24224;DHT22;12359;49.716;9.212;2023-10-09T05:24:02;12.70;51.10
24224;DHT22;12359;49.716;9.212;2023-10-09T05:26:38;12.70;51.90
24224;DHT22;12359;49.716;9.212;2023-10-09T05:29:10;12.70;50.30
24224;DHT22;12359;49.716;9.212;2023-10-09T05:32:03;12.70;51.50
24224;DHT22;12359;49.716;9.212;2023-10-09T05:34:39;12.70;51.80
24224;DHT22;12359;49.716;9.212;2023-10-09T05:37:24;12.80;51.80
24224;DHT22;12359;49.716;9.212;2023-10-09T05:39:59;12.80;51.60
24224;DHT22;12359;49.716;9.212;2023-10-09T05:42:25;12.80;51.80
24224;DHT22;12359;49.716;9.212;2023-10-09T05:47:45;12.80;52.60
24224;DHT22;12359;49.716;9.212;2023-10-09T05:50:29;12.90;53.10
24224;DHT22;12359;49.716;9.212;2023-10-09T05:53:04;12.90;54.00
24224;DHT22;12359;49.716;9.212;2023-10-09T05:55:31;12.90;51.30
24224;DHT22;12359;49.716;9.212;2023-10-09T05:58:02;12.90;55.40
24224;DHT22;12359;49.716;9.212;2023-10-09T06:00:46;12.90;53.70
24224;DHT22;12359;49.716;9.212;2023-10-09T06:03:31;12.90;54.50
24224;DHT22;12359;49.716;9.212;2023-10-09T06:06:15;12.90;53.30
24224;DHT22;12359;49.716;9.212;2023-10-09T06:09:04;13.00;52.20
24224;DHT22;12359;49.716;9.212;2023-10-09T06:11:39;13.00;53.30
24224;DHT22;12359;49.716;9.212;2023-10-09T06:14:05;13.00;52.30
24224;DHT22;12359;49.716;9.212;2023-10-09T06:16:34;13.10;52.60
24224;DHT22;12359;49.716;9.212;2023-10-09T06:19:19;13.10;52.10
24224;DHT22;12359;49.716;9.212;2023-10-09T06:21:44;13.20;50.70
24224;DHT22;12359;49.716;9.212;2023-10-09T06:24:43;13.20;52.20
24224;DHT22;12359;49.716;9.212;2023-10-09T06:27:21;13.20;49.70
24224;DHT22;12359;49.716;9.212;2023-10-09T06:30:09;13.30;51.80
24224;DHT22;12359;49.716;9.212;2023-10-09T06:32:38;13.30;50.70
24224;DHT22;12359;49.716;9.212;2023-10-09T06:35:04;13.30;49.80
24224;DHT22;12359;49.716;9.212;2023-10-09T06:37:51;13.30;50.10
24224;DHT22;12359;49.716;9.212;2023-10-09T06:40:32;13.40;51.40
24224;DHT22;12359;49.716;9.212;2023-10-09T06:43:20;13.40;50.40
24224;DHT22;12359;49.716;9.212;2023-10-09T06:45:53;13.40;48.40
24224;DHT22;12359;49.716;9.212;2023-10-09T06:48:38;13.50;51.40
24224;DHT22;12359;49.716;9.212;2023-10-09T06:51:04;13.50;49.80
24224;DHT22;12359;49.716;9.212;2023-10-09T06:54:08;13.60;49.90
24224;DHT22;12359;49.716;9.212;2023-10-09T06:56:40;13.60;48.80
24224;DHT22;12359;49.716;9.212;2023-10-09T06:59:15;13.70;48.40
24224;DHT22;12359;49.716;9.212;2023-10-09T07:01:51;13.70;47.70
24224;DHT22;12359;49.716;9.212;2023-10-09T07:04:36;13.80;49.30
24224;DHT22;12359;49.716;9.212;2023-10-09T07:07:02;13.80;46.10
24224;DHT22;12359;49.716;9.212;2023-10-09T07:09:33;13.90;44.60
24224;DHT22;12359;49.716;9.212;2023-10-09T07:12:08;14.00;46.30
24224;DHT22;12359;49.716;9.212;2023-10-09T07:14:46;14.00;42.10
24224;DHT22;12359;49.716;9.212;2023-10-09T07:17:12;14.00;39.70
24224;DHT22;12359;49.716;9.212;2023-10-09T07:20:11;14.10;42.50
24224;DHT22;12359;49.716;9.212;2023-10-09T07:22:55;14.20;39.10
24224;DHT22;12359;49.716;9.212;2023-10-09T07:25:42;14.20;37.60
24224;DHT22;12359;49.716;9.212;2023-10-09T07:28:21;14.30;38.60
24224;DHT22;12359;49.716;9.212;2023-10-09T07:31:19;14.30;35.70
24224;DHT22;12359;49.716;9.212;2023-10-09T07:34:05;14.40;38.20
24224;DHT22;12359;49.716;9.212;2023-10-09T07:36:48;14.40;36.40
24224;DHT22;12359;49.716;9.212;2023-10-09T07:39:15;14.50;33.90
24224;DHT22;12359;49.716;9.212;2023-10-09T07:41:42;14.50;30.40
24224;DHT22;12359;49.716;9.212;2023-10-09T07:44:20;14.60;28.30
24224;DHT22;12359;49.716;9.212;2023-10-09T07:47:02;14.60;25.90
24224;DHT22;12359;49.716;9.212;2023-10-09T07:49:45;14.70;21.60
24224;DHT22;12359;49.716;9.212;2023-10-09T07:52:17;14.70;16.70
24224;DHT22;12359;49.716;9.212;2023-10-09T07:54:43;14.80;20.50
24224;DHT22;12359;49.716;9.212;2023-10-09T07:57:16;14.90;12.10
24224;DHT22;12359;49.716;9.212;2023-10-09T07:59:43;14.90;9.60
24224;DHT22;12359;49.716;9.212;2023-10-09T08:02:22;15.00;7.90
24224;DHT22;12359;49.716;9.212;2023-10-09T08:05:01;15.10;6.70
24224;DHT22;12359;49.716;9.212;2023-10-09T08:07:32;15.20;3.30
24224;DHT22;12359;49.716;9.212;2023-10-09T08:10:07;15.20;5.60
24224;DHT22;12359;49.716;9.212;2023-10-09T08:12:39;15.30;1.20
24224;DHT22;12359;49.716;9.212;2023-10-09T08:15:24;15.40;1.00
24224;DHT22;12359;49.716;9.212;2023-10-09T08:18:00;15.40;1.00
24224;DHT22;12359;49.716;9.212;2023-10-09T08:20:35;15.50;1.00
24224;DHT22;12359;49.716;9.212;2023-10-09T08:23:36;15.60;1.00
24224;DHT22;12359;49.716;9.212;2023-10-09T08:26:15;15.70;1.00
24224;DHT22;12359;49.716;9.212;2023-10-09T08:28:54;15.80;1.00
24224;DHT22;12359;49.716;9.212;2023-10-09T08:31:20;16.00;1.00
24224;DHT22;12359;49.716;9.212;2023-10-09T08:34:12;16.10;1.00
24224;DHT22;12359;49.716;9.212;2023-10-09T08:36:51;16.40;1.00
24224;DHT22;12359;49.716;9.212;2023-10-09T08:39:19;16.50;1.00
24224;DHT22;12359;49.716;9.212;2023-10-09T08:41:54;16.60;1.00
24224;DHT22;12359;49.716;9.212;2023-10-09T08:44:24;16.70;1.00
24224;DHT22;12359;49.716;9.212;2023-10-09T08:46:54;16.80;1.00
24224;DHT22;12359;49.716;9.212;2023-10-09T08:49:20;16.90;1.00
24224;DHT22;12359;49.716;9.212;2023-10-09T08:51:46;17.00;1.00
24224;DHT22;12359;49.716;9.212;2023-10-09T08:54:14;17.00;1.00
24224;DHT22;12359;49.716;9.212;2023-10-09T08:56:41;17.10;99.90
24224;DHT22;12359;49.716;9.212;2023-10-09T08:59:16;17.20;99.90
24224;DHT22;12359;49.716;9.212;2023-10-09T09:01:46;17.40;99.90
24224;DHT22;12359;49.716;9.212;2023-10-09T09:04:34;17.50;99.90
24224;DHT22;12359;49.716;9.212;2023-10-09T09:07:00;17.60;99.90
24224;DHT22;12359;49.716;9.212;2023-10-09T09:09:27;17.70;99.90
24224;DHT22;12359;49.716;9.212;2023-10-09T09:11:56;17.80;99.90
24224;DHT22;12359;49.716;9.212;2023-10-09T09:14:38;17.90;99.90
24224;DHT22;12359;49.716;9.212;2023-10-09T09:17:05;18.00;99.90
24224;DHT22;12359;49.716;9.212;2023-10-09T09:19:37;18.00;99.90
24224;DHT22;12359;49.716;9.212;2023-10-09T09:22:04;18.00;99.90
24224;DHT22;12359;49.716;9.212;2023-10-09T09:24:39;18.00;99.90
24224;DHT22;12359;49.716;9.212;2023-10-09T09:27:11;18.10;99.90
24224;DHT22;12359;49.716;9.212;2023-10-09T09:29:44;18.10;99.90
24224;DHT22;12359;49.716;9.212;2023-10-09T09:32:28;18.10;99.90
24224;DHT22;12359;49.716;9.212;2023-10-09T09:35:12;18.10;99.90
24224;DHT22;12359;49.716;9.212;2023-10-09T09:37:52;18.20;99.90
24224;DHT22;12359;49.716;9.212;2023-10-09T09:40:18;18.20;99.90
24224;DHT22;12359;49.716;9.212;2023-10-09T09:42:59;18.30;59.20
24224;DHT22;12359;49.716;9.212;2023-10-09T09:45:37;18.20;1.00
24224;DHT22;12359;49.716;9.212;2023-10-09T09:48:04;18.30;57.90
24224;DHT22;12359;49.716;9.212;2023-10-09T09:50:36;18.50;99.00
24224;DHT22;12359;49.716;9.212;2023-10-09T09:53:12;18.50;99.90
24224;DHT22;12359;49.716;9.212;2023-10-09T09:55:53;18.50;99.90
24224;DHT22;12359;49.716;9.212;2023-10-09T09:58:25;18.50;99.90
24224;DHT22;12359;49.716;9.212;2023-10-09T10:01:03;18.60;99.90
24224;DHT22;12359;49.716;9.212;2023-10-09T10:03:47;18.60;99.90
24224;DHT22;12359;49.716;9.212;2023-10-09T10:06:13;18.70;91.70
24224;DHT22;12359;49.716;9.212;2023-10-09T10:08:42;18.80;83.40
24224;DHT22;12359;49.716;9.212;2023-10-09T10:11:41;18.90;83.00
24224;DHT22;12359;49.716;9.212;2023-10-09T10:14:07;19.00;57.40
24224;DHT22;12359;49.716;9.212;2023-10-09T10:17:02;19.10;99.90
24224;DHT22;12359;49.716;9.212;2023-10-09T10:22:29;19.30;95.70
24224;DHT22;12359;49.716;9.212;2023-10-09T10:24:58;19.40;16.90
24224;DHT22;12359;49.716;9.212;2023-10-09T10:27:28;19.50;26.10
24224;DHT22;12359;49.716;9.212;2023-10-09T10:32:55;19.70;1.00
24224;DHT22;12359;49.716;9.212;2023-10-09T10:35:23;19.70;99.90
24224;DHT22;12359;49.716;9.212;2023-10-09T10:40:50;19.90;99.90
24224;DHT22;12359;49.716;9.212;2023-10-09T10:43:26;19.90;99.90
24224;DHT22;12359;49.716;9.212;2023-10-09T10:46:05;20.00;99.90
24224;DHT22;12359;49.716;9.212;2023-10-09T10:48:39;20.10;99.90
24224;DHT22;12359;49.716;9.212;2023-10-09T10:51:06;20.10;99.90
24224;DHT22;12359;49.716;9.212;2023-10-09T10:53:32;20.10;39.30
24224;DHT22;12359;49.716;9.212;2023-10-09T10:56:13;20.20;99.90
24224;DHT22;12359;49.716;9.212;2023-10-09T10:58:42;20.10;99.90
24224;DHT22;12359;49.716;9.212;2023-10-09T11:01:35;20.20;99.90
24224;DHT22;12359;49.716;9.212;2023-10-09T11:04:24;20.20;99.90
24224;DHT22;12359;49.716;9.212;2023-10-09T11:07:04;20.30;29.30
24224;DHT22;12359;49.716;9.212;2023-10-09T11:12:49;20.50;99.90
24224;DHT22;12359;49.716;9.212;2023-10-09T11:15:31;20.50;99.90
24224;DHT22;12359;49.716;9.212;2023-10-09T11:18:07;20.60;99.90
24224;DHT22;12359;49.716;9.212;2023-10-09T11:20:34;21.00;1.00
24224;DHT22;12359;49.716;9.212;2023-10-09T11:23:02;21.30;99.90
24224;DHT22;12359;49.716;9.212;2023-10-09T11:25:42;21.70;99.90
24224;DHT22;12359;49.716;9.212;2023-10-09T11:28:22;21.90;99.90
24224;DHT22;12359;49.716;9.212;2023-10-09T11:31:17;21.90;1.00
24224;DHT22;12359;49.716;9.212;2023-10-09T11:33:47;21.70;66.40
24224;DHT22;12359;49.716;9.212;2023-10-09T11:36:20;21.80;99.90
24224;DHT22;12359;49.716;9.212;2023-10-09T11:38:57;21.70;91.10
24224;DHT22;12359;49.716;9.212;2023-10-09T11:41:42;21.60;1.00
24224;DHT22;12359;49.716;9.212;2023-10-09T11:44:10;22.00;1.00
24224;DHT22;12359;49.716;9.212;2023-10-09T11:47:02;22.50;1.00
24224;DHT22;12359;49.716;9.212;2023-10-09T11:50:01;23.30;99.90
24224;DHT22;12359;49.716;9.212;2023-10-09T11:52:27;24.10;1.00
24224;DHT22;12359;49.716;9.212;2023-10-09T11:55:12;24.80;99.90
24224;DHT22;12359;49.716;9.212;2023-10-09T11:57:41;25.30;99.90
24224;DHT22;12359;49.716;9.212;2023-10-09T12:00:07;25.50;99.90
24224;DHT22;12359;49.716;9.212;2023-10-09T12:02:37;25.90;99.90
24224;DHT22;12359;49.716;9.212;2023-10-09T12:05:10;26.20;99.90
24224;DHT22;12359;49.716;9.212;2023-10-09T12:07:45;25.80;92.70
24224;DHT22;12359;49.716;9.212;2023-10-09T12:10:11;25.10;78.80
24224;DHT22;12359;49.716;9.212;2023-10-09T12:12:39;24.70;91.00
24224;DHT22;12359;49.716;9.212;2023-10-09T12:15:06;24.10;97.20
24224;DHT22;12359;49.716;9.212;2023-10-09T12:17:32;23.70;99.90
24224;DHT22;12359;49.716;9.212;2023-10-09T12:19:58;23.60;99.90
24224;DHT22;12359;49.716;9.212;2023-10-09T12:22:24;23.60;99.90
24224;DHT22;12359;49.716;9.212;2023-10-09T12:24:52;23.30;99.90
24224;DHT22;12359;49.716;9.212;2023-10-09T12:27:18;23.30;99.90
24224;DHT22;12359;49.716;9.212;2023-10-09T12:29:46;23.10;99.90
24224;DHT22;12359;49.716;9.212;2023-10-09T12:32:11;23.10;99.90
24224;DHT22;12359;49.716;9.212;2023-10-09T12:34:38;23.30;99.90
24224;DHT22;12359;49.716;9.212;2023-10-09T12:37:04;23.60;99.90
24224;DHT22;12359;49.716;9.212;2023-10-09T12:39:30;23.90;91.40
24224;DHT22;12359;49.716;9.212;2023-10-09T12:41:59;24.10;60.00
24224;DHT22;12359;49.716;9.212;2023-10-09T12:44:35;24.30;69.80
24224;DHT22;12359;49.716;9.212;2023-10-09T12:47:08;24.30;47.30
24224;DHT22;12359;49.716;9.212;2023-10-09T12:49:37;24.40;36.30
24224;DHT22;12359;49.716;9.212;2023-10-09T12:52:07;24.30;15.20
24224;DHT22;12359;49.716;9.212;2023-10-09T12:54:42;24.40;9.90
24224;DHT22;12359;49.716;9.212;2023-10-09T12:57:07;24.30;1.00
24224;DHT22;12359;49.716;9.212;2023-10-09T12:59:42;24.20;1.00
24224;DHT22;12359;49.716;9.212;2023-10-09T13:02:19;24.00;1.00
24224;DHT22;12359;49.716;9.212;2023-10-09T13:04:55;23.90;1.00
24224;DHT22;12359;49.716;9.212;2023-10-09T13:07:21;23.80;1.00
24224;DHT22;12359;49.716;9.212;2023-10-09T13:09:48;23.70;1.00
24224;DHT22;12359;49.716;9.212;2023-10-09T13:12:35;23.70;1.00
24224;DHT22;12359;49.716;9.212;2023-10-09T13:15:10;23.60;1.00
24224;DHT22;12359;49.716;9.212;2023-10-09T13:17:37;23.40;1.00
24224;DHT22;12359;49.716;9.212;2023-10-09T13:20:03;23.30;1.00
24224;DHT22;12359;49.716;9.212;2023-10-09T13:22:41;23.10;1.00
24224;DHT22;12359;49.716;9.212;2023-10-09T13:25:10;23.00;1.00
24224;DHT22;12359;49.716;9.212;2023-10-09T13:27:43;23.00;1.00
24224;DHT22;12359;49.716;9.212;2023-10-09T13:30:19;23.00;2.50
24224;DHT22;12359;49.716;9.212;2023-10-09T13:32:50;23.00;1.60
24224;DHT22;12359;49.716;9.212;2023-10-09T13:35:19;23.00;1.00
24224;DHT22;12359;49.716;9.212;2023-10-09T13:37:45;23.00;1.00
24224;DHT22;12359;49.716;9.212;2023-10-09T13:40:20;23.00;4.30
24224;DHT22;12359;49.716;9.212;2023-10-09T13:42:55;23.10;12.50
24224;DHT22;12359;49.716;9.212;2023-10-09T13:45:30;23.10;10.80
24224;DHT22;12359;49.716;9.212;2023-10-09T13:47:57;23.00;4.60
24224;DHT22;12359;49.716;9.212;2023-10-09T13:50:26;23.10;4.00
24224;DHT22;12359;49.716;9.212;2023-10-09T13:52:58;23.00;8.70
24224;DHT22;12359;49.716;9.212;2023-10-09T13:55:24;22.90;7.70
24224;DHT22;12359;49.716;9.212;2023-10-09T13:57:57;23.00;10.10
24224;DHT22;12359;49.716;9.212;2023-10-09T14:00:23;22.90;9.70
24224;DHT22;12359;49.716;9.212;2023-10-09T14:03:02;22.90;12.30
24224;DHT22;12359;49.716;9.212;2023-10-09T14:05:38;22.80;15.50
24224;DHT22;12359;49.716;9.212;2023-10-09T14:08:10;22.60;16.10
24224;DHT22;12359;49.716;9.212;2023-10-09T14:10:37;22.50;23.10
24224;DHT22;12359;49.716;9.212;2023-10-09T14:13:04;22.40;29.60
24224;DHT22;12359;49.716;9.212;2023-10-09T14:15:37;22.30;36.30
24224;DHT22;12359;49.716;9.212;2023-10-09T14:18:07;22.20;38.90
24224;DHT22;12359;49.716;9.212;2023-10-09T14:20:37;22.10;44.70
24224;DHT22;12359;49.716;9.212;2023-10-09T14:23:03;22.10;55.10
24224;DHT22;12359;49.716;9.212;2023-10-09T14:25:35;22.10;59.90
24224;DHT22;12359;49.716;9.212;2023-10-09T14:28:09;22.00;73.70
24224;DHT22;12359;49.716;9.212;2023-10-09T14:30:38;22.00;84.80
24224;DHT22;12359;49.716;9.212;2023-10-09T14:33:10;22.10;93.10
24224;DHT22;12359;49.716;9.212;2023-10-09T14:35:44;22.10;97.00
24224;DHT22;12359;49.716;9.212;2023-10-09T14:38:10;22.00;90.70
24224;DHT22;12359;49.716;9.212;2023-10-09T14:40:43;22.00;97.10
24224;DHT22;12359;49.716;9.212;2023-10-09T14:43:09;21.90;99.70
24224;DHT22;12359;49.716;9.212;2023-10-09T14:45:47;22.00;99.90
24224;DHT22;12359;49.716;9.212;2023-10-09T14:48:19;22.00;99.90
24224;DHT22;12359;49.716;9.212;2023-10-09T14:50:48;21.90;99.90
24224;DHT22;12359;49.716;9.212;2023-10-09T14:53:15;21.90;99.90
24224;DHT22;12359;49.716;9.212;2023-10-09T14:55:41;22.00;99.90
24224;DHT22;12359;49.716;9.212;2023-10-09T14:58:11;22.00;99.90
24224;DHT22;12359;49.716;9.212;2023-10-09T15:00:37;21.90;99.90
24224;DHT22;12359;49.716;9.212;2023-10-09T15:03:04;21.90;99.90
24224;DHT22;12359;49.716;9.212;2023-10-09T15:05:30;21.90;99.90
24224;DHT22;12359;49.716;9.212;2023-10-09T15:08:00;21.90;99.90
24224;DHT22;12359;49.716;9.212;2023-10-09T15:10:26;21.90;99.90
24224;DHT22;12359;49.716;9.212;2023-10-09T15:12:53;21.90;99.90
24224;DHT22;12359;49.716;9.212;2023-10-09T15:15:19;21.90;99.90
24224;DHT22;12359;49.716;9.212;2023-10-09T15:17:50;21.90;99.90
24224;DHT22;12359;49.716;9.212;2023-10-09T15:20:16;21.80;99.90
24224;DHT22;12359;49.716;9.212;2023-10-09T15:22:42;21.80;99.90
24224;DHT22;12359;49.716;9.212;2023-10-09T15:25:08;21.70;99.90
24224;DHT22;12359;49.716;9.212;2023-10-09T15:27:34;21.70;99.90
24224;DHT22;12359;49.716;9.212;2023-10-09T15:30:00;21.70;1.00
24224;DHT22;12359;49.716;9.212;2023-10-09T15:32:25;21.60;87.10
24224;DHT22;12359;49.716;9.212;2023-10-09T15:34:58;21.60;99.90
24224;DHT22;12359;49.716;9.212;2023-10-09T15:37:24;21.50;99.90
24224;DHT22;12359;49.716;9.212;2023-10-09T15:39:49;21.40;99.90
24224;DHT22;12359;49.716;9.212;2023-10-09T15:42:15;21.30;1.00
24224;DHT22;12359;49.716;9.212;2023-10-09T15:44:42;21.30;1.00
24224;DHT22;12359;49.716;9.212;2023-10-09T15:47:08;21.20;11.20
24224;DHT22;12359;49.716;9.212;2023-10-09T15:49:37;21.10;99.90
24224;DHT22;12359;49.716;9.212;2023-10-09T15:52:06;21.00;99.90
24224;DHT22;12359;49.716;9.212;2023-10-09T15:54:34;21.00;99.90
24224;DHT22;12359;49.716;9.212;2023-10-09T15:57:00;20.80;1.00
24224;DHT22;12359;49.716;9.212;2023-10-09T15:59:26;20.80;99.90
24224;DHT22;12359;49.716;9.212;2023-10-09T16:01:51;20.80;99.90
24224;DHT22;12359;49.716;9.212;2023-10-09T16:04:18;20.80;1.00
24224;DHT22;12359;49.716;9.212;2023-10-09T16:06:44;20.70;1.00
24224;DHT22;12359;49.716;9.212;2023-10-09T16:09:10;20.60;1.00
24224;DHT22;12359;49.716;9.212;2023-10-09T16:11:47;20.60;99.90
24224;DHT22;12359;49.716;9.212;2023-10-09T16:14:13;20.50;99.90
24224;DHT22;12359;49.716;9.212;2023-10-09T16:16:41;20.50;99.90
24224;DHT22;12359;49.716;9.212;2023-10-09T16:19:10;20.40;99.90
24224;DHT22;12359;49.716;9.212;2023-10-09T16:21:37;20.30;99.90
24224;DHT22;12359;49.716;9.212;2023-10-09T16:24:02;20.20;99.90
24224;DHT22;12359;49.716;9.212;2023-10-09T16:26:31;20.10;99.90